Time;durP1;ratioP1;P1;durP2;ratioP2;P2;SDS_P1;SDS_P2;PMS_P1;PMS_P2;Temp;Humidity;BMP_temperature;BMP_pressure;BME280_temperature;BME280_humidity;BME280_pressure;Samples;Min_cycle;Max_cycle;Signal;HPM_P1;HPM_P2
2022/05/31 00:00:29;;;;;;;;;;;;;;;20.21;60.66;100724.53;7402054;19;1646;-38
2022/05/31 00:02:59;;;;;;;;;;;;;;;20.29;60.65;100712.19;7397341;19;1942;-38
2022/05/31 00:05:28;;;;;;;;;;;;;;;20.32;60.26;100726.19;7401231;19;1620;-40
2022/05/31 00:07:56;;;;;;;;;;;;;;;20.37;59.71;100721.25;7403732;19;1080;-38
2022/05/31 00:10:24;;;;;;;;;;;;;;;20.32;59.92;100711.91;7401471;19;1958;-38
2022/05/31 00:12:53;;;;;;;;;;;;;;;20.40;59.70;100706.66;7402423;19;1688;-38
2022/05/31 00:15:24;;;;;;;;;;;;;;;20.44;59.26;100716.13;7400869;19;1850;-39
2022/05/31 00:17:52;;;;;;;;;;;;;;;20.44;59.52;100722.34;7401772;19;1501;-38
2022/05/31 00:20:21;;;;;;;;;;;;;;;20.47;59.48;100715.81;7401780;19;1693;-38
2022/05/31 00:22:50;;;;;;;;;;;;;;;20.45;59.28;100712.44;7402020;19;1568;-38
2022/05/31 00:25:18;;;;;;;;;;;;;;;20.47;59.69;100705.06;7401253;19;1905;-38
2022/05/31 00:27:46;;;;;;;;;;;;;;;20.44;59.43;100727.69;7401745;19;1661;-39
2022/05/31 00:30:16;;;;;;;;;;;;;;;20.45;59.44;100725.84;7401325;19;2067;-38
2022/05/31 00:32:49;;;;;;;;;;;;;;;20.49;59.55;100732.63;7401967;19;1757;-39
2022/05/31 00:35:19;;;;;;;;;;;;;;;20.44;59.67;100722.34;7399973;19;1897;-39
2022/05/31 00:37:48;;;;;;;;;;;;;;;20.49;59.56;100732.63;7403086;19;1038;-38
2022/05/31 00:40:18;;;;;;;;;;;;;;;20.44;59.67;100724.19;7399891;19;1844;-38
2022/05/31 00:42:53;;;;;;;;;;;;;;;20.40;59.52;100730.84;7400993;19;1695;-39
2022/05/31 00:45:21;;;;;;;;;;;;;;;20.39;59.84;100727.31;7400799;19;1599;-39
2022/05/31 00:47:52;;;;;;;;;;;;;;;20.40;59.83;100714.72;7400589;19;1613;-38
2022/05/31 00:50:25;;;;;;;;;;;;;;;20.42;59.81;100739.59;7401447;19;1718;-38
2022/05/31 00:52:55;;;;;;;;;;;;;;;20.43;59.96;100735.91;7399227;19;1756;-39
2022/05/31 00:55:25;;;;;;;;;;;;;;;20.41;59.47;100749.50;7398427;19;1856;-39
2022/05/31 00:57:57;;;;;;;;;;;;;;;20.47;59.55;100745.34;7401226;19;1583;-38
2022/05/31 01:00:25;;;;;;;;;;;;;;;20.43;59.48;100746.63;7400079;19;1661;-38
2022/05/31 01:02:56;;;;;;;;;;;;;;;20.40;59.90;100737.03;7398422;19;1796;-38
2022/05/31 01:05:26;;;;;;;;;;;;;;;20.41;59.79;100737.88;7400353;19;1666;-40
2022/05/31 01:07:55;;;;;;;;;;;;;;;20.34;59.71;100744.84;7400669;19;1725;-38
2022/05/31 01:10:23;;;;;;;;;;;;;;;20.22;60.17;100744.16;7400399;19;1791;-39
2022/05/31 01:12:52;;;;;;;;;;;;;;;20.19;60.21;100741.75;7400398;19;1778;-38
2022/05/31 01:15:21;;;;;;;;;;;;;;;20.12;59.78;100754.06;7403108;19;1855;-38
2022/05/31 01:17:50;;;;;;;;;;;;;;;20.10;59.79;100726.53;7407815;19;1670;-39
2022/05/31 01:20:22;;;;;;;;;;;;;;;20.14;59.62;100736.81;7408320;19;1399;-38
2022/05/31 01:22:52;;;;;;;;;;;;;;;20.21;59.73;100747.81;7407668;19;1767;-38
2022/05/31 01:25:28;;;;;;;;;;;;;;;20.22;59.38;100745.00;7406110;19;1531;-38
2022/05/31 01:28:02;;;;;;;;;;;;;;;20.22;59.19;100747.69;7407986;19;1699;-38
2022/05/31 01:30:31;;;;;;;;;;;;;;;20.21;59.21;100756.75;7407185;19;1840;-39
2022/05/31 01:33:01;;;;;;;;;;;;;;;20.18;59.26;100759.72;7407152;19;1583;-38
2022/05/31 01:35:33;;;;;;;;;;;;;;;20.20;59.48;100752.34;7405972;19;1859;-38
2022/05/31 01:38:04;;;;;;;;;;;;;;;20.18;58.98;100737.38;7408573;19;1004;-38
2022/05/31 01:40:37;;;;;;;;;;;;;;;20.14;59.42;100747.56;7407148;19;1741;-38
2022/05/31 01:43:05;;;;;;;;;;;;;;;20.20;58.95;100735.41;7406213;19;1601;-38
2022/05/31 01:45:35;;;;;;;;;;;;;;;20.25;58.75;100750.09;7405435;19;1658;-39
2022/05/31 01:48:05;;;;;;;;;;;;;;;20.16;58.85;100756.31;7406090;19;1808;-40
2022/05/31 01:50:36;;;;;;;;;;;;;;;19.99;59.31;100743.63;7406387;19;1756;-39
2022/05/31 01:53:06;;;;;;;;;;;;;;;19.90;59.20;100760.59;7406978;19;1689;-39
2022/05/31 01:55:37;;;;;;;;;;;;;;;19.94;59.10;100748.56;7407048;19;1854;-39
2022/05/31 01:58:11;;;;;;;;;;;;;;;19.97;58.80;100748.28;7408993;19;1579;-39
2022/05/31 02:00:39;;;;;;;;;;;;;;;19.99;58.74;100722.97;7399083;19;3563;-68
2022/05/31 02:03:09;;;;;;;;;;;;;;;19.96;58.71;100734.03;7405953;19;1533;-68
2022/05/31 02:05:45;;;;;;;;;;;;;;;19.84;59.11;100751.25;7407130;19;1613;-68
2022/05/31 02:08:13;;;;;;;;;;;;;;;19.81;59.31;100744.31;7408489;19;1793;-68
2022/05/31 02:10:43;;;;;;;;;;;;;;;19.92;58.61;100756.75;7409718;19;1749;-68
2022/05/31 02:13:11;;;;;;;;;;;;;;;19.97;58.51;100761.69;7409255;19;1670;-68
2022/05/31 02:15:39;;;;;;;;;;;;;;;20.03;57.90;100758.44;7409127;19;1858;-65
2022/05/31 02:18:08;;;;;;;;;;;;;;;19.95;58.75;100772.56;7410369;19;1578;-64
2022/05/31 02:20:39;;;;;;;;;;;;;;;19.91;58.68;100768.47;7409486;19;1303;-65
2022/05/31 02:23:08;;;;;;;;;;;;;;;20.03;58.13;100780.78;7410582;19;1579;-65
2022/05/31 02:25:36;;;;;;;;;;;;;;;20.04;57.86;100774.41;7408352;19;1461;-66
2022/05/31 02:28:05;;;;;;;;;;;;;;;20.16;58.07;100783.16;7408517;19;1729;-65
2022/05/31 02:30:33;;;;;;;;;;;;;;;20.11;57.94;100763.09;7409881;19;1527;-65
2022/05/31 02:33:02;;;;;;;;;;;;;;;20.10;58.01;100767.63;7408276;19;1363;-65
2022/05/31 02:35:30;;;;;;;;;;;;;;;20.05;57.87;100770.75;7409445;19;1852;-65
2022/05/31 02:38:01;;;;;;;;;;;;;;;20.04;57.94;100778.94;7408935;19;1547;-65
2022/05/31 02:40:29;;;;;;;;;;;;;;;20.05;57.91;100788.66;7407459;19;1603;-65
2022/05/31 02:42:58;;;;;;;;;;;;;;;20.09;58.20;100784.72;7406469;19;1587;-65
2022/05/31 02:45:26;;;;;;;;;;;;;;;20.03;58.44;100798.72;7407518;19;1347;-65
2022/05/31 02:47:55;;;;;;;;;;;;;;;19.96;58.52;100797.59;7408141;19;1627;-65
2022/05/31 02:50:23;;;;;;;;;;;;;;;19.97;58.19;100785.84;7407412;19;1437;-65
2022/05/31 02:52:52;;;;;;;;;;;;;;;20.03;58.08;100794.22;7408358;19;1455;-66
2022/05/31 02:55:23;;;;;;;;;;;;;;;19.93;58.26;100792.50;7407704;19;1510;-65
2022/05/31 02:57:51;;;;;;;;;;;;;;;19.89;58.69;100820.59;7405523;19;1840;-65
2022/05/31 03:00:20;;;;;;;;;;;;;;;19.92;58.19;100797.03;7405938;19;1297;-65
2022/05/31 03:02:48;;;;;;;;;;;;;;;19.94;58.21;100810.31;7405312;19;1417;-65
2022/05/31 03:05:16;;;;;;;;;;;;;;;19.99;58.05;100795.44;7406413;19;1299;-65
2022/05/31 03:07:44;;;;;;;;;;;;;;;20.06;57.93;100811.84;7406669;19;1546;-65
2022/05/31 03:10:13;;;;;;;;;;;;;;;19.99;58.17;100818.78;7408041;19;1686;-65
2022/05/31 03:12:43;;;;;;;;;;;;;;;20.00;58.32;100789.09;7407415;19;1623;-65
2022/05/31 03:15:16;;;;;;;;;;;;;;;20.02;58.23;100819.34;7406992;19;1543;-64
2022/05/31 03:17:47;;;;;;;;;;;;;;;19.88;58.61;100830.50;7405189;19;1842;-65
2022/05/31 03:20:18;;;;;;;;;;;;;;;19.83;58.77;100828.22;7408354;19;1614;-65
2022/05/31 03:22:47;;;;;;;;;;;;;;;19.81;59.19;100832.88;7408915;19;1315;-65
2022/05/31 03:25:18;;;;;;;;;;;;;;;19.88;59.27;100833.19;7405247;19;1573;-65
2022/05/31 03:27:50;;;;;;;;;;;;;;;19.95;59.07;100854.94;7407109;19;1556;-65
2022/05/31 03:30:18;;;;;;;;;;;;;;;20.02;58.79;100840.81;7406995;19;1551;-65
2022/05/31 03:32:47;;;;;;;;;;;;;;;20.00;59.02;100871.47;7407070;19;1559;-65
2022/05/31 03:35:16;;;;;;;;;;;;;;;19.99;59.34;100864.41;7405765;19;1347;-65
2022/05/31 03:37:44;;;;;;;;;;;;;;;19.95;59.33;100847.72;7405407;19;1850;-65
2022/05/31 03:40:56;;;;;;;;;;;;;;;20.02;59.45;100850.72;7406216;19;1626;-65
2022/05/31 03:43:06;;;;;;;;;;;;;;;20.14;59.20;100846.91;7405546;19;1630;-65
2022/05/31 03:45:35;;;;;;;;;;;;;;;20.13;59.17;100847.88;7406333;19;1645;-65
2022/05/31 03:48:03;;;;;;;;;;;;;;;20.18;59.10;100864.41;7406945;19;1598;-65
2022/05/31 03:50:31;;;;;;;;;;;;;;;20.18;59.16;100861.75;7404684;19;1296;-65
2022/05/31 03:52:59;;;;;;;;;;;;;;;20.20;59.60;100875.88;7404835;19;1634;-65
2022/05/31 03:55:28;;;;;;;;;;;;;;;20.11;59.64;100865.97;7405723;19;1740;-65
2022/05/31 03:57:57;;;;;;;;;;;;;;;20.18;59.71;100872.47;7403792;19;1855;-65
2022/05/31 04:00:28;;;;;;;;;;;;;;;20.16;59.82;100866.41;7405764;19;1441;-65
2022/05/31 04:02:56;;;;;;;;;;;;;;;20.24;59.77;100869.22;7403572;19;1491;-65
2022/05/31 04:05:24;;;;;;;;;;;;;;;20.34;59.72;100869.22;7404921;19;1563;-65
2022/05/31 04:07:53;;;;;;;;;;;;;;;20.27;59.86;100866.28;7406419;19;1308;-65
2022/05/31 04:10:21;;;;;;;;;;;;;;;20.24;59.85;100865.69;7406007;19;1729;-65
2022/05/31 04:12:50;;;;;;;;;;;;;;;20.36;59.99;100866.41;7405760;19;1630;-65
2022/05/31 04:15:18;;;;;;;;;;;;;;;20.44;59.70;100861.16;7406290;19;1354;-65
2022/05/31 04:17:49;;;;;;;;;;;;;;;20.49;60.07;100861.56;7404420;19;1847;-66
2022/05/31 04:20:17;;;;;;;;;;;;;;;20.25;60.37;100873.63;7404656;19;1539;-65
2022/05/31 04:22:45;;;;;;;;;;;;;;;20.24;60.96;100877.28;7407099;19;1338;-64
2022/05/31 04:25:13;;;;;;;;;;;;;;;20.36;61.03;100877.16;7404799;19;1670;-65
2022/05/31 04:27:42;;;;;;;;;;;;;;;20.49;60.32;100864.25;7404447;19;1533;-67
2022/05/31 04:30:11;;;;;;;;;;;;;;;20.59;60.31;100892.03;7403182;19;1635;-68
2022/05/31 04:32:39;;;;;;;;;;;;;;;20.71;60.37;100867.66;7404321;19;1490;-69
2022/05/31 04:35:11;;;;;;;;;;;;;;;20.71;60.58;100863.16;7403834;19;1582;-65
2022/05/31 04:37:39;;;;;;;;;;;;;;;20.71;60.36;100886.47;7405964;19;1835;-62
2022/05/31 04:40:08;;;;;;;;;;;;;;;20.82;60.40;100871.03;7401835;19;1620;-66
2022/05/31 04:42:37;;;;;;;;;;;;;;;20.85;60.79;100883.34;7404104;19;1411;-67
2022/05/31 04:45:06;;;;;;;;;;;;;;;20.90;60.69;100862.25;7402893;19;1689;-68
2022/05/31 04:47:34;;;;;;;;;;;;;;;20.84;60.77;100858.28;7401560;19;1698;-67
2022/05/31 04:50:03;;;;;;;;;;;;;;;20.83;60.69;100877.25;7400797;19;1701;-67
2022/05/31 04:52:34;;;;;;;;;;;;;;;20.83;61.03;100893.38;7406549;19;1559;-67
2022/05/31 04:55:02;;;;;;;;;;;;;;;20.84;61.29;100860.13;7410298;19;1425;-67
2022/05/31 04:57:30;;;;;;;;;;;;;;;20.86;61.06;100850.94;7409975;19;1859;-67
2022/05/31 04:59:59;;;;;;;;;;;;;;;20.95;61.12;100861.78;7411858;19;1614;-67
2022/05/31 05:02:27;;;;;;;;;;;;;;;20.97;61.02;100866.06;7409166;19;1485;-67
2022/05/31 05:04:55;;;;;;;;;;;;;;;21.02;60.88;100850.31;7412145;19;1567;-67
2022/05/31 05:07:26;;;;;;;;;;;;;;;21.05;60.83;100855.41;7409978;19;1376;-67
2022/05/31 05:09:57;;;;;;;;;;;;;;;21.01;61.56;100848.63;7411242;19;1431;-68
2022/05/31 05:12:26;;;;;;;;;;;;;;;21.08;61.14;100856.13;7411342;19;1302;-67
2022/05/31 05:14:54;;;;;;;;;;;;;;;21.13;61.71;100856.50;7408689;19;1443;-67
2022/05/31 05:17:24;;;;;;;;;;;;;;;21.12;61.77;100860.19;7410541;19;1868;-63
2022/05/31 05:19:53;;;;;;;;;;;;;;;21.19;61.43;100843.31;7409154;19;1773;-61
2022/05/31 05:22:21;;;;;;;;;;;;;;;21.24;61.50;100842.88;7410927;19;1373;-64
2022/05/31 05:24:49;;;;;;;;;;;;;;;21.34;61.81;100870.56;7410030;19;1703;-60
2022/05/31 05:27:20;;;;;;;;;;;;;;;21.33;61.50;100863.50;7409404;19;1308;-63
2022/05/31 05:32:29;;;;;;;;;;;;;;;21.51;62.41;100868.97;7411170;19;1235;-62
2022/05/31 05:34:58;;;;;;;;;;;;;;;21.43;62.50;100864.34;7409378;19;1543;-60
2022/05/31 05:37:26;;;;;;;;;;;;;;;21.49;62.73;100859.34;7407801;19;1837;-59
2022/05/31 05:39:54;;;;;;;;;;;;;;;21.50;62.78;100864.56;7409813;19;1352;-60
2022/05/31 05:42:25;;;;;;;;;;;;;;;21.47;62.59;100864.03;7408509;19;1323;-59
2022/05/31 05:44:53;;;;;;;;;;;;;;;21.53;62.75;100868.84;7407221;19;1426;-59
2022/05/31 05:47:22;;;;;;;;;;;;;;;21.57;62.70;100871.06;7409277;19;1378;-60
2022/05/31 05:49:50;;;;;;;;;;;;;;;21.61;62.51;100866.25;7407254;19;1362;-59
2022/05/31 05:52:19;;;;;;;;;;;;;;;21.59;62.84;100868.22;7405194;19;1984;-59
2022/05/31 05:54:47;;;;;;;;;;;;;;;21.62;63.13;100862.53;7408456;19;1482;-61
2022/05/31 05:57:16;;;;;;;;;;;;;;;21.73;63.03;100872.25;7406090;19;1854;-60
2022/05/31 05:59:47;;;;;;;;;;;;;;;21.70;62.74;100873.38;7408663;19;1516;-59
2022/05/31 06:02:18;;;;;;;;;;;;;;;21.61;63.59;100880.53;7403852;19;1631;-60
2022/05/31 06:04:49;;;;;;;;;;;;;;;21.54;63.01;100868.66;7409148;19;1543;-60
2022/05/31 06:07:20;;;;;;;;;;;;;;;21.52;63.58;100870.66;7410532;19;1112;-59
2022/05/31 06:09:52;;;;;;;;;;;;;;;21.49;63.46;100865.59;7408792;19;1399;-59
2022/05/31 06:12:22;;;;;;;;;;;;;;;21.51;63.49;100870.84;7407381;19;1382;-59
2022/05/31 06:14:57;;;;;;;;;;;;;;;21.50;63.64;100872.66;7409006;19;1449;-60
2022/05/31 06:17:27;;;;;;;;;;;;;;;21.46;63.12;100879.34;7407613;19;1853;-60
2022/05/31 06:19:55;;;;;;;;;;;;;;;21.48;63.16;100863.88;7408816;19;1622;-60
2022/05/31 06:22:23;;;;;;;;;;;;;;;21.50;63.81;100869.13;7409469;19;1642;-60
2022/05/31 06:24:52;;;;;;;;;;;;;;;21.50;63.15;100869.13;7408160;19;1705;-59
2022/05/31 06:27:20;;;;;;;;;;;;;;;21.48;63.35;100853.13;7409079;19;1563;-59
2022/05/31 06:29:49;;;;;;;;;;;;;;;21.49;63.36;100857.53;7409303;19;1630;-59
2022/05/31 06:32:19;;;;;;;;;;;;;;;21.47;63.42;100847.88;7409406;19;1695;-60
2022/05/31 06:34:48;;;;;;;;;;;;;;;21.48;63.35;100845.06;7408348;19;1399;-60
2022/05/31 06:37:18;;;;;;;;;;;;;;;21.51;63.42;100870.84;7407015;19;1845;-59
2022/05/31 06:39:48;;;;;;;;;;;;;;;21.50;63.26;100871.81;7406509;19;1541;-60
2022/05/31 06:42:16;;;;;;;;;;;;;;;21.48;63.11;100852.28;7407002;19;1399;-61
2022/05/31 06:44:46;;;;;;;;;;;;;;;21.48;63.38;100863.03;7407576;19;1642;-60
2022/05/31 06:47:14;;;;;;;;;;;;;;;21.52;63.30;100872.50;7408652;19;1615;-60
2022/05/31 06:49:45;;;;;;;;;;;;;;;21.50;63.47;100864.56;7407011;19;1478;-60
2022/05/31 06:57:37;;;;;;;;;;;;;;;21.49;63.14;100862.03;7406944;19;1825;-60
2022/05/31 07:00:07;;;;;;;;;;;;;;;21.45;63.28;100862.34;7405971;19;1482;-62
2022/05/31 07:02:35;;;;;;;;;;;;;;;21.44;63.31;100852.56;7406129;19;1480;-61
2022/05/31 07:05:06;;;;;;;;;;;;;;;21.49;63.01;100862.91;7407859;19;1574;-61
2022/05/31 07:07:35;;;;;;;;;;;;;;;21.52;63.23;100878.72;7408687;19;1579;-62
2022/05/31 07:10:03;;;;;;;;;;;;;;;21.47;63.47;100861.34;7406558;19;1339;-61
2022/05/31 07:12:32;;;;;;;;;;;;;;;21.49;63.45;100859.34;7405186;19;1532;-61
2022/05/31 07:15:00;;;;;;;;;;;;;;;21.48;63.28;100857.66;7406211;19;1339;-62
2022/05/31 07:17:28;;;;;;;;;;;;;;;21.50;63.02;100866.44;7407152;19;1866;-61
2022/05/31 07:19:56;;;;;;;;;;;;;;;21.50;63.04;100869.97;7407566;19;1694;-61
2022/05/31 07:22:27;;;;;;;;;;;;;;;21.50;62.97;100869.13;7407590;19;1627;-62
2022/05/31 07:24:56;;;;;;;;;;;;;;;21.50;63.13;100867.28;7406794;19;1690;-61
2022/05/31 07:27:24;;;;;;;;;;;;;;;21.54;63.33;100865.13;7406349;19;1312;-60
2022/05/31 07:29:52;;;;;;;;;;;;;;;21.58;63.32;100882.66;7404814;19;1375;-61
2022/05/31 07:32:21;;;;;;;;;;;;;;;21.54;63.13;100867.81;7402902;19;1313;-60
2022/05/31 07:34:51;;;;;;;;;;;;;;;21.55;63.34;100859.59;7405881;19;1312;-60
2022/05/31 07:37:19;;;;;;;;;;;;;;;21.54;63.39;100870.53;7407360;19;1839;-59
2022/05/31 07:39:50;;;;;;;;;;;;;;;21.53;63.22;100880.44;7404563;19;1296;-59
2022/05/31 07:42:18;;;;;;;;;;;;;;;21.55;63.39;100872.22;7406722;19;1550;-60
2022/05/31 07:44:47;;;;;;;;;;;;;;;21.53;63.47;100876.91;7405663;19;1797;-60
2022/05/31 07:47:15;;;;;;;;;;;;;;;21.56;63.45;100871.22;7405241;19;1630;-59
2022/05/31 07:49:43;;;;;;;;;;;;;;;21.66;63.50;100869.31;7404644;19;1402;-60
2022/05/31 07:52:12;;;;;;;;;;;;;;;21.67;63.70;100865.63;7407273;19;1484;-63
2022/05/31 07:54:40;;;;;;;;;;;;;;;21.72;64.10;100855.25;7404220;19;1754;-62
2022/05/31 07:58:30;;;;;;;;;;;;;;;21.88;64.39;100864.50;7403732;19;1857;-70
2022/05/31 07:59:59;;;;;;;;;;;;;;;21.81;63.85;100869.66;7404328;19;1987;-68
2022/05/31 08:02:28;;;;;;;;;;;;;;;21.82;64.16;100869.47;7405217;19;1467;-68
2022/05/31 08:04:56;;;;;;;;;;;;;;;21.83;63.79;100868.50;7405217;19;1730;-72
2022/05/31 08:07:24;;;;;;;;;;;;;;;21.82;64.30;100868.66;7406106;19;1748;-67
2022/05/31 08:09:53;;;;;;;;;;;;;;;21.87;64.13;100862.81;7404645;19;1611;-60
2022/05/31 08:12:24;;;;;;;;;;;;;;;21.83;64.80;100862.28;7404189;19;1794;-60
2022/05/31 08:14:52;;;;;;;;;;;;;;;21.78;64.53;100862.72;7404444;19;1546;-60
2022/05/31 08:17:21;;;;;;;;;;;;;;;21.73;64.38;100856.97;7406390;19;1848;-61
2022/05/31 08:19:49;;;;;;;;;;;;;;;21.78;64.38;100868.09;7404714;19;1527;-61
2022/05/31 08:22:18;;;;;;;;;;;;;;;21.74;64.69;100866.72;7405436;19;1548;-60
2022/05/31 08:24:46;;;;;;;;;;;;;;;21.73;65.02;100865.03;7403016;19;1590;-60
2022/05/31 08:27:15;;;;;;;;;;;;;;;21.74;64.80;100877.47;7404372;19;1630;-60
2022/05/31 08:29:46;;;;;;;;;;;;;;;21.74;65.07;100865.88;7405200;19;1395;-60
2022/05/31 08:32:15;;;;;;;;;;;;;;;21.75;64.85;100868.41;7402980;19;1678;-61
2022/05/31 08:34:43;;;;;;;;;;;;;;;21.74;65.04;100861.31;7403399;19;1320;-60
2022/05/31 08:37:12;;;;;;;;;;;;;;;21.72;64.83;100863.31;7403700;19;1309;-61
2022/05/31 08:39:40;;;;;;;;;;;;;;;21.73;64.67;100865.03;7402710;19;1841;-61
2022/05/31 08:42:10;;;;;;;;;;;;;;;21.74;64.17;100871.25;7403693;19;1229;-61
2022/05/31 08:44:45;;;;;;;;;;;;;;;21.73;64.35;100862.34;7402043;19;1408;-61
2022/05/31 08:47:31;;;;;;;;;;;;;;;21.77;64.32;100868.28;7404067;19;1369;-60
2022/05/31 08:52:55;;;;;;;;;;;;;;;22.00;64.01;100868.66;7404856;19;1468;-63
2022/05/31 08:58:09;;;;;;;;;;;;;;;21.88;64.46;100868.03;7402963;19;1861;-64
2022/05/31 09:00:41;;;;;;;;;;;;;;;21.86;64.56;100864.66;7402313;19;1292;-65
2022/05/31 09:03:16;;;;;;;;;;;;;;;21.89;64.79;100872.44;7403546;19;1303;-64
2022/05/31 09:05:48;;;;;;;;;;;;;;;21.98;64.30;100868.81;7403477;19;1606;-66
2022/05/31 09:08:19;;;;;;;;;;;;;;;21.99;64.54;100865.13;7402456;19;1567;-61
2022/05/31 09:10:50;;;;;;;;;;;;;;;21.96;64.95;100878.03;7402735;19;1713;-62
2022/05/31 09:13:22;;;;;;;;;;;;;;;21.89;65.05;100868.91;7401722;19;1703;-63
2022/05/31 09:15:53;;;;;;;;;;;;;;;21.89;64.60;100858.97;7401067;19;1694;-64
2022/05/31 09:18:26;;;;;;;;;;;;;;;21.92;64.72;100858.66;7400702;19;1868;-60
2022/05/31 09:20:56;;;;;;;;;;;;;;;21.95;65.23;100874.50;7403657;19;1593;-63
2022/05/31 09:23:26;;;;;;;;;;;;;;;22.01;66.08;100868.53;7402984;19;1269;-61
2022/05/31 09:25:59;;;;;;;;;;;;;;;22.05;67.52;100859.13;7402682;19;1230;-63
2022/05/31 09:28:32;;;;;;;;;;;;;;;22.08;68.31;100841.81;7403997;19;1779;-62
2022/05/31 09:31:04;;;;;;;;;;;;;;;22.11;68.50;100868.44;7401962;19;1700;-63
2022/05/31 09:33:37;;;;;;;;;;;;;;;22.34;67.76;100849.16;7401256;19;1626;-62
2022/05/31 09:36:13;;;;;;;;;;;;;;;22.36;68.28;100861.47;7405619;19;1485;-62
2022/05/31 09:38:52;;;;;;;;;;;;;;;22.27;68.83;100851.63;7409090;19;1857;-61
2022/05/31 09:41:24;;;;;;;;;;;;;;;22.27;69.38;100842.69;7408076;19;1768;-60
2022/05/31 09:43:58;;;;;;;;;;;;;;;22.34;69.22;100857.22;7410032;19;1384;-63
2022/05/31 09:46:34;;;;;;;;;;;;;;;22.31;70.41;100846.78;7409344;19;1744;-63
2022/05/31 09:49:11;;;;;;;;;;;;;;;22.34;71.37;100850.00;7409285;19;1367;-66
2022/05/31 09:51:41;;;;;;;;;;;;;;;22.53;70.57;100851.66;7405447;19;1450;-61
2022/05/31 09:59:31;;;;;;;;;;;;;;;22.36;71.36;100848.00;7407064;19;1844;-62
2022/05/31 10:02:13;;;;;;;;;;;;;;;22.28;70.92;100847.06;7407289;19;1361;-64
2022/05/31 10:04:44;;;;;;;;;;;;;;;22.31;70.43;100847.63;7407427;19;1288;-60
2022/05/31 10:07:13;;;;;;;;;;;;;;;22.27;70.50;100837.31;7408613;19;1543;-57
2022/05/31 10:09:43;;;;;;;;;;;;;;;22.23;70.78;100834.03;7407100;19;1192;-57
2022/05/31 10:12:16;;;;;;;;;;;;;;;22.17;70.02;100834.66;7407667;19;1430;-58
2022/05/31 10:14:46;;;;;;;;;;;;;;;22.15;70.49;100845.59;7408735;19;1430;-58
2022/05/31 10:17:33;;;;;;;;;;;;;;;22.12;69.88;100832.41;7409389;19;1730;-58
2022/05/31 10:20:19;;;;;;;;;;;;;;;22.11;69.57;100825.34;7405087;19;1850;-59
2022/05/31 10:22:56;;;;;;;;;;;;;;;22.14;69.27;100830.41;7410014;19;1110;-58
2022/05/31 10:25:26;;;;;;;;;;;;;;;22.15;69.41;100832.13;7407376;19;1263;-58
2022/05/31 10:27:58;;;;;;;;;;;;;;;22.12;69.31;100826.19;7408507;19;1531;-58
2022/05/31 10:30:27;;;;;;;;;;;;;;;22.09;69.08;100827.34;7407152;19;1760;-58
2022/05/31 10:32:57;;;;;;;;;;;;;;;22.10;68.95;100826.34;7409137;19;1606;-58
2022/05/31 10:35:27;;;;;;;;;;;;;;;22.04;68.82;100824.28;7407452;19;1535;-58
2022/05/31 10:38:04;;;;;;;;;;;;;;;22.03;68.86;100818.03;7407725;19;1296;-58
2022/05/31 10:40:43;;;;;;;;;;;;;;;22.01;68.64;100803.06;7408103;19;1698;-58
2022/05/31 10:43:26;;;;;;;;;;;;;;;22.01;68.53;100813.81;7407746;19;1537;-58
2022/05/31 10:45:56;;;;;;;;;;;;;;;22.04;68.80;100818.88;7406109;19;1451;-58
2022/05/31 10:48:24;;;;;;;;;;;;;;;22.02;68.53;100827.13;7404774;19;1270;-58
2022/05/31 10:50:58;;;;;;;;;;;;;;;21.95;68.73;100798.28;7407262;19;1241;-58
2022/05/31 10:53:34;;;;;;;;;;;;;;;21.90;68.77;100796.03;7407178;19;1333;-58
2022/05/31 10:56:06;;;;;;;;;;;;;;;21.94;68.49;100801.97;7408010;19;1431;-58
2022/05/31 10:58:46;;;;;;;;;;;;;;;21.96;68.18;100808.03;7407844;19;1870;-58
2022/05/31 11:01:20;;;;;;;;;;;;;;;21.92;68.18;100795.88;7404462;19;1662;-58
2022/05/31 11:03:53;;;;;;;;;;;;;;;21.95;68.23;100788.34;7407725;19;1749;-58
2022/05/31 11:06:33;;;;;;;;;;;;;;;21.95;68.08;100793.75;7407259;19;1325;-58
2022/05/31 11:12:01;;;;;;;;;;;;;;;21.94;68.03;100775.03;7405022;19;1400;-58
2022/05/31 11:14:54;;;;;;;;;;;;;;;21.97;67.90;100780.13;7406823;19;1109;-58
2022/05/31 11:17:35;;;;;;;;;;;;;;;21.95;67.89;100774.91;7405550;19;1894;-58
2022/05/31 11:20:07;;;;;;;;;;;;;;;21.95;67.66;100776.75;7404286;19;1862;-58
2022/05/31 11:22:41;;;;;;;;;;;;;;;21.96;67.98;100768.50;7407050;19;1655;-58
2022/05/31 11:25:28;;;;;;;;;;;;;;;21.93;67.76;100758.06;7406254;19;1784;-58
2022/05/31 11:28:02;;;;;;;;;;;;;;;21.94;67.96;100761.59;7406604;19;1670;-58
2022/05/31 11:30:33;;;;;;;;;;;;;;;21.92;67.73;100766.28;7406581;19;1257;-58
2022/05/31 11:33:20;;;;;;;;;;;;;;;21.91;67.67;100754.66;7405845;19;1366;-58
2022/05/31 11:35:58;;;;;;;;;;;;;;;21.92;67.41;100761.72;7405787;19;1343;-58
2022/05/31 11:38:30;;;;;;;;;;;;;;;21.92;67.42;100742.03;7405702;19;1859;-58
2022/05/31 11:41:09;;;;;;;;;;;;;;;21.96;67.17;100751.50;7406252;19;1569;-58
2022/05/31 11:43:44;;;;;;;;;;;;;;;21.95;67.10;100739.06;7407296;19;1311;-58
2022/05/31 11:46:16;;;;;;;;;;;;;;;21.98;67.08;100744.13;7405896;19;1386;-58
2022/05/31 11:48:54;;;;;;;;;;;;;;;21.97;67.39;100742.44;7405106;19;1709;-58
2022/05/31 11:51:37;;;;;;;;;;;;;;;22.12;67.07;100734.63;7404315;19;1549;-60
2022/05/31 11:54:23;;;;;;;;;;;;;;;22.13;66.79;100726.41;7402102;19;1572;-59
2022/05/31 11:57:01;;;;;;;;;;;;;;;22.12;66.93;100732.78;7404637;19;1267;-57
2022/05/31 11:59:32;;;;;;;;;;;;;;;22.15;66.59;100729.78;7404932;19;1854;-58
2022/05/31 12:02:06;;;;;;;;;;;;;;;22.16;66.96;100723.41;7403000;19;1769;-58
2022/05/31 12:04:38;;;;;;;;;;;;;;;22.22;66.98;100714.69;7402767;19;1259;-58
2022/05/31 12:07:15;;;;;;;;;;;;;;;22.24;67.71;100728.88;7404680;19;1303;-58
2022/05/31 12:09:47;;;;;;;;;;;;;;;22.23;66.81;100727.13;7403038;19;1303;-58
2022/05/31 12:12:21;;;;;;;;;;;;;;;22.24;65.89;100718.09;7402618;19;1548;-58
2022/05/31 12:14:51;;;;;;;;;;;;;;;22.14;66.28;100714.59;7405466;19;1513;-58
2022/05/31 12:17:21;;;;;;;;;;;;;;;22.19;65.65;100720.38;7405121;19;1531;-58
2022/05/31 12:19:54;;;;;;;;;;;;;;;22.32;65.14;100716.44;7403681;19;1870;-58
2022/05/31 12:22:26;;;;;;;;;;;;;;;22.24;65.14;100710.03;7405092;19;1441;-58
2022/05/31 12:24:56;;;;;;;;;;;;;;;22.31;65.07;100712.91;7404532;19;1560;-58
2022/05/31 12:27:31;;;;;;;;;;;;;;;22.30;64.77;100724.69;7404234;19;1551;-58
2022/05/31 12:30:02;;;;;;;;;;;;;;;22.25;64.76;100702.78;7403702;19;1253;-58
2022/05/31 12:32:32;;;;;;;;;;;;;;;22.24;64.64;100704.63;7403913;19;1427;-58
2022/05/31 12:35:02;;;;;;;;;;;;;;;22.22;64.46;100701.22;7402663;19;1661;-58
2022/05/31 12:37:52;;;;;;;;;;;;;;;22.29;64.19;100714.94;7403622;19;1413;-57
2022/05/31 12:40:27;;;;;;;;;;;;;;;22.31;63.63;100702.13;7401607;19;1854;-58
2022/05/31 12:42:58;;;;;;;;;;;;;;;22.58;62.65;100709.22;7404367;19;1382;-58
2022/05/31 12:45:39;;;;;;;;;;;;;;;22.46;62.53;100688.91;7398257;19;1560;-58
2022/05/31 12:48:17;;;;;;;;;;;;;;;22.48;62.27;100705.75;7403507;19;1398;-60
2022/05/31 12:51:11;;;;;;;;;;;;;;;22.47;62.63;100697.84;7403179;19;1563;-60
2022/05/31 12:53:54;;;;;;;;;;;;;;;22.30;63.49;100684.28;7402925;19;1501;-60
2022/05/31 12:56:39;;;;;;;;;;;;;;;22.28;63.23;100696.22;7402610;19;1466;-60
2022/05/31 12:59:10;;;;;;;;;;;;;;;22.23;63.46;100689.44;7402264;19;1863;-60
2022/05/31 13:01:46;;;;;;;;;;;;;;;22.19;63.77;100682.66;7401701;19;1630;-60
2022/05/31 13:04:28;;;;;;;;;;;;;;;22.22;63.57;100682.38;7403603;19;1388;-60
2022/05/31 13:07:07;;;;;;;;;;;;;;;22.18;64.01;100685.50;7403599;19;1362;-60
2022/05/31 13:09:38;;;;;;;;;;;;;;;22.20;64.02;100683.50;7401988;19;1398;-59
2022/05/31 13:20:23;;;;;;;;;;;;;;;22.30;63.64;100678.03;7408292;19;1845;-59
2022/05/31 13:22:55;;;;;;;;;;;;;;;22.24;63.62;100676.84;7410411;19;1683;-60
2022/05/31 13:25:25;;;;;;;;;;;;;;;22.21;64.31;100682.53;7408443;19;1468;-60
2022/05/31 13:27:55;;;;;;;;;;;;;;;22.20;63.83;100705.94;7410145;19;1591;-60
2022/05/31 13:30:27;;;;;;;;;;;;;;;22.22;63.94;100709.31;7409222;19;1490;-60
2022/05/31 13:32:56;;;;;;;;;;;;;;;22.43;63.37;100700.03;7409379;19;1299;-60
2022/05/31 13:35:26;;;;;;;;;;;;;;;22.48;63.20;100705.75;7408332;19;1485;-60
2022/05/31 13:37:57;;;;;;;;;;;;;;;22.41;63.94;100704.72;7410252;19;1366;-60